createdAt,value
2022-12-11T00:02:18.801Z,29.00
2022-12-11T00:07:22.089Z,28.10
2022-12-11T00:09:54.584Z,32.80
2022-12-11T00:12:29.366Z,27.60
2022-12-11T00:15:01.910Z,29.60
2022-12-11T00:20:05.687Z,28.10
2022-12-11T00:22:38.325Z,33.20
2022-12-11T00:27:42.504Z,32.40
2022-12-11T00:30:15.970Z,30.40
2022-12-11T00:32:48.547Z,35.10
2022-12-11T00:35:21.354Z,30.80
2022-12-11T00:40:24.363Z,30.10
2022-12-11T00:42:56.844Z,29.30
2022-12-11T00:48:00.126Z,31.60
2022-12-11T00:53:03.257Z,35.20
2022-12-11T00:55:54.337Z,30.90
2022-12-11T00:58:27.019Z,25.90
2022-12-11T01:01:09.548Z,29.70
2022-12-11T01:03:42.604Z,32.00
2022-12-11T01:06:19.490Z,30.60
2022-12-11T01:09:13.705Z,34.00
2022-12-11T01:11:46.559Z,31.30
2022-12-11T01:14:19.242Z,29.30
2022-12-11T01:19:22.588Z,26.00
2022-12-11T01:21:54.980Z,30.50
2022-12-11T01:26:58.324Z,44.30
2022-12-11T01:32:01.574Z,81.20
2022-12-11T01:34:34.449Z,81.00
2022-12-11T01:37:06.997Z,72.90
2022-12-11T01:39:40.086Z,70.50
2022-12-11T01:42:20.054Z,68.30
2022-12-11T01:45:27.213Z,83.90
2022-12-11T01:48:10.266Z,78.50
2022-12-11T01:50:45.988Z,90.40
2022-12-11T01:53:21.860Z,87.00
2022-12-11T02:04:12.677Z,86.20
2022-12-11T02:06:46.941Z,94.20
2022-12-11T02:09:20.929Z,97.70
2022-12-11T02:12:00.777Z,87.80
2022-12-11T02:14:40.264Z,84.20
2022-12-11T02:17:18.971Z,85.40
2022-12-11T02:20:03.730Z,93.50
2022-12-11T02:22:53.907Z,94.10
2022-12-11T02:25:31.286Z,95.70
2022-12-11T02:28:21.611Z,86.30
2022-12-11T02:30:55.766Z,80.50
2022-12-11T02:33:42.429Z,66.20
2022-12-11T02:36:15.395Z,57.20
2022-12-11T02:38:50.900Z,53.30
2022-12-11T02:41:24.830Z,40.70
2022-12-11T02:43:58.581Z,46.80
2022-12-11T02:46:31.592Z,41.90
2022-12-11T02:49:06.230Z,33.80
2022-12-11T02:51:45.103Z,33.20
2022-12-11T02:54:21.102Z,32.00
2022-12-11T02:56:55.869Z,31.30
2022-12-11T02:59:31.622Z,33.60
2022-12-11T03:02:04.626Z,29.20
2022-12-11T03:04:38.578Z,29.00
2022-12-11T03:07:13.897Z,23.90
2022-12-11T03:09:48.033Z,24.90
2022-12-11T03:12:23.028Z,20.60
2022-12-11T03:14:55.486Z,24.50
2022-12-11T03:20:06.079Z,27.10
2022-12-11T03:22:42.420Z,27.50
2022-12-11T03:25:18.702Z,24.00
2022-12-11T03:27:55.072Z,22.10
2022-12-11T03:30:28.730Z,22.00
2022-12-11T03:33:04.382Z,22.20
2022-12-11T03:35:38.944Z,23.20
2022-12-11T03:38:14.120Z,26.90
2022-12-11T03:40:50.045Z,25.50
2022-12-11T03:43:25.398Z,27.30
2022-12-11T03:45:58.336Z,24.00
2022-12-11T03:48:36.617Z,20.40
2022-12-11T03:51:10.479Z,22.00
2022-12-11T03:53:42.995Z,22.50
2022-12-11T03:56:17.099Z,24.20
2022-12-11T03:58:49.545Z,21.10
2022-12-11T04:01:22.046Z,21.30
2022-12-11T04:06:25.472Z,22.80
2022-12-11T04:11:38.396Z,22.40
2022-12-11T04:14:30.485Z,19.90
2022-12-11T04:27:08.928Z,20.60
2022-12-11T04:29:41.384Z,20.90
2022-12-11T04:32:13.780Z,21.70
2022-12-11T04:34:46.244Z,18.80
2022-12-11T04:39:49.539Z,17.60
2022-12-11T04:49:24.553Z,19.30
2022-12-11T04:54:27.814Z,18.20
2022-12-11T04:59:31.657Z,18.70
2022-12-11T05:02:04.378Z,21.00
2022-12-11T05:04:37.535Z,19.10
2022-12-11T05:07:10.845Z,24.00
2022-12-11T05:09:43.380Z,20.00
2022-12-11T05:14:46.883Z,21.30
2022-12-11T05:17:19.498Z,19.60
2022-12-11T05:19:52.434Z,19.00
2022-12-11T05:22:24.819Z,15.30
2022-12-11T05:24:57.251Z,18.50
2022-12-11T05:27:30.122Z,21.60
2022-12-11T05:30:02.541Z,21.60
2022-12-11T05:32:36.538Z,20.50
2022-12-11T05:35:10.344Z,22.20
2022-12-11T05:37:42.977Z,19.90
2022-12-11T05:42:47.845Z,23.10
2022-12-11T05:45:20.338Z,20.40
2022-12-11T05:47:52.811Z,24.50
2022-12-11T05:50:25.277Z,21.70
2022-12-11T05:55:28.866Z,18.40
2022-12-11T06:00:36.065Z,19.60
2022-12-11T06:03:08.801Z,15.40
2022-12-11T06:08:13.099Z,18.90
2022-12-11T06:10:50.045Z,20.80
2022-12-11T06:13:22.397Z,22.00
2022-12-11T06:18:25.630Z,24.20
2022-12-11T06:20:58.213Z,21.70
2022-12-11T06:26:03.448Z,24.00
2022-12-11T06:28:35.570Z,23.30
2022-12-11T06:31:09.078Z,21.70
2022-12-11T06:33:41.902Z,18.90
2022-12-11T06:36:16.313Z,20.10
2022-12-11T06:38:49.018Z,21.30
2022-12-11T06:43:52.224Z,20.30
2022-12-11T06:46:24.872Z,17.00
2022-12-11T06:48:57.386Z,19.90
2022-12-11T06:54:00.630Z,21.00
2022-12-11T06:56:33.673Z,27.20
2022-12-11T06:59:07.738Z,24.30
2022-12-11T07:01:40.993Z,25.60
2022-12-11T07:04:13.469Z,24.30
2022-12-11T07:06:47.554Z,22.00
2022-12-11T07:09:19.912Z,20.90
2022-12-11T07:11:54.071Z,27.90
2022-12-11T07:14:26.587Z,27.90
2022-12-11T07:19:30.681Z,20.90
2022-12-11T07:22:03.130Z,28.40
2022-12-11T07:27:07.165Z,17.70
2022-12-11T07:29:40.036Z,28.60
2022-12-11T07:32:12.611Z,23.50
2022-12-11T07:37:25.119Z,21.60
2022-12-11T07:39:57.607Z,25.00
2022-12-11T07:42:30.000Z,22.80
2022-12-11T07:45:02.549Z,22.50
2022-12-11T07:47:34.889Z,14.30
2022-12-11T07:50:07.977Z,19.00
2022-12-11T07:52:40.732Z,16.10
2022-12-11T07:55:14.183Z,15.60
2022-12-11T07:57:46.718Z,15.50
2022-12-11T08:02:50.844Z,14.50
2022-12-11T08:05:23.316Z,15.50
2022-12-11T08:07:56.107Z,17.40
2022-12-11T08:13:00.396Z,16.80
2022-12-11T08:15:33.883Z,19.70
2022-12-11T08:18:06.886Z,18.40
2022-12-11T08:20:41.308Z,12.30
2022-12-11T08:23:14.409Z,12.60
2022-12-11T08:25:46.908Z,13.70
2022-12-11T08:28:19.375Z,11.20
2022-12-11T08:33:42.047Z,14.90
2022-12-11T08:36:16.357Z,13.50
2022-12-11T08:38:49.185Z,13.50
2022-12-11T08:41:23.518Z,11.80
2022-12-11T08:43:56.568Z,10.20
2022-12-11T08:46:32.654Z,7.40
2022-12-11T08:49:05.160Z,9.20
2022-12-11T08:54:08.457Z,7.40
2022-12-11T08:59:12.348Z,6.30
2022-12-11T09:04:16.221Z,7.00
2022-12-11T09:06:48.644Z,8.40
2022-12-11T09:11:52.498Z,8.10
2022-12-11T09:16:58.320Z,8.90
2022-12-11T09:19:32.599Z,6.00
2022-12-11T09:22:05.201Z,6.90
2022-12-11T09:24:38.461Z,8.10
2022-12-11T09:27:10.873Z,13.00
2022-12-11T09:32:13.970Z,8.60
2022-12-11T09:34:46.497Z,9.10
2022-12-11T09:39:52.236Z,8.10
2022-12-11T09:42:29.406Z,8.20
2022-12-11T09:45:07.162Z,10.30
2022-12-11T09:47:42.287Z,8.70
2022-12-11T09:50:18.536Z,6.60
2022-12-11T09:53:47.531Z,13.70
2022-12-11T09:56:31.924Z,8.20
2022-12-11T09:59:14.776Z,11.60
2022-12-11T10:01:56.559Z,7.40
2022-12-11T10:04:46.874Z,13.20
2022-12-11T10:07:22.104Z,5.30
2022-12-11T10:09:58.365Z,12.20
2022-12-11T10:12:42.476Z,10.40
2022-12-11T10:15:27.811Z,13.10
2022-12-11T10:18:06.486Z,9.80
2022-12-11T10:20:40.587Z,11.50
2022-12-11T10:23:20.290Z,8.40
2022-12-11T10:25:59.831Z,8.10
2022-12-11T10:28:40.176Z,12.50
2022-12-11T10:31:34.134Z,7.20
2022-12-11T10:34:15.266Z,8.90
2022-12-11T10:36:47.498Z,9.60
2022-12-11T10:41:53.891Z,8.80
2022-12-11T10:44:30.848Z,7.70
2022-12-11T10:47:11.795Z,8.10
2022-12-11T10:49:54.407Z,9.60
2022-12-11T10:55:06.292Z,9.50
2022-12-11T10:57:40.739Z,11.20
2022-12-11T11:00:34.987Z,9.60
2022-12-11T11:03:09.597Z,11.50
2022-12-11T11:05:49.114Z,7.30
2022-12-11T11:08:26.616Z,9.20
2022-12-11T11:11:02.391Z,9.10
2022-12-11T11:13:37.490Z,9.20
2022-12-11T11:16:14.833Z,7.30
2022-12-11T11:18:55.137Z,8.30
2022-12-11T11:21:30.837Z,11.20
2022-12-11T11:24:04.570Z,8.50
2022-12-11T11:27:11.729Z,8.80
2022-12-11T11:29:33.134Z,9.40
2022-12-11T11:32:19.190Z,7.60
2022-12-11T11:34:55.362Z,8.60
2022-12-11T11:37:37.895Z,9.60
2022-12-11T11:40:16.524Z,8.40
2022-12-11T11:42:54.178Z,7.70
2022-12-11T11:45:30.772Z,9.00
2022-12-11T11:48:17.394Z,13.90
2022-12-11T11:50:58.229Z,14.30
2022-12-11T11:53:39.961Z,13.00
2022-12-11T11:56:23.616Z,12.10
2022-12-11T11:59:32.564Z,12.40
2022-12-11T12:02:19.535Z,9.90
2022-12-11T12:04:56.979Z,10.10
2022-12-11T12:07:42.472Z,11.00
2022-12-11T12:10:27.371Z,10.00
2022-12-11T12:13:14.324Z,14.60
2022-12-11T12:16:00.328Z,10.80
2022-12-11T12:18:46.868Z,11.10
2022-12-11T12:21:25.950Z,9.70
2022-12-11T12:24:09.671Z,17.90
2022-12-11T12:26:47.224Z,12.00
2022-12-11T12:29:28.117Z,13.00
2022-12-11T12:32:11.182Z,13.20
2022-12-11T12:35:19.467Z,10.70
2022-12-11T12:38:05.504Z,11.80
2022-12-11T12:40:45.884Z,12.00
2022-12-11T12:43:45.247Z,12.00
2022-12-11T12:46:53.717Z,13.90
2022-12-11T12:49:39.259Z,17.40
2022-12-11T12:52:22.787Z,10.90
2022-12-11T12:55:20.286Z,13.60
2022-12-11T12:58:01.106Z,9.30
2022-12-11T13:01:17.434Z,10.20
2022-12-11T13:03:59.504Z,8.20
2022-12-11T13:06:39.395Z,8.00
2022-12-11T13:09:17.600Z,8.70
2022-12-11T13:11:54.032Z,12.00
2022-12-11T13:14:31.321Z,12.20
2022-12-11T13:17:26.894Z,12.60
2022-12-11T13:20:19.254Z,15.60
2022-12-11T13:23:09.967Z,16.10
2022-12-11T13:25:55.192Z,14.50
2022-12-11T13:28:31.298Z,13.70
2022-12-11T13:31:25.185Z,14.10
2022-12-11T13:34:10.681Z,10.60
2022-12-11T13:36:47.218Z,13.40
2022-12-11T13:39:24.335Z,16.60
2022-12-11T13:41:59.429Z,13.40
2022-12-11T13:44:50.406Z,13.40
2022-12-11T13:47:30.417Z,13.20
2022-12-11T13:50:13.729Z,12.00
2022-12-11T13:52:57.776Z,12.70
2022-12-11T13:55:34.307Z,13.10
2022-12-11T13:58:15.567Z,11.70
2022-12-11T14:00:59.330Z,15.90
2022-12-11T14:03:33.146Z,14.30
2022-12-11T14:06:18.203Z,13.50
2022-12-11T14:08:53.674Z,14.40
2022-12-11T14:11:29.561Z,9.50
2022-12-11T14:14:03.678Z,8.80
2022-12-11T14:16:36.536Z,8.60
2022-12-11T14:19:11.196Z,5.90
2022-12-11T14:21:44.318Z,8.00
2022-12-11T14:24:17.655Z,5.50
2022-12-11T14:26:53.791Z,5.30
2022-12-11T14:29:31.609Z,8.30
2022-12-11T14:32:05.759Z,4.20
2022-12-11T14:34:41.667Z,7.20
2022-12-11T14:37:17.400Z,5.20
2022-12-11T14:39:55.624Z,6.70
2022-12-11T14:42:30.643Z,4.80
2022-12-11T14:45:06.687Z,3.90
2022-12-11T14:47:42.655Z,5.50
2022-12-11T14:50:21.221Z,4.40
2022-12-11T14:52:55.378Z,6.40
2022-12-11T14:55:30.740Z,6.00
2022-12-11T14:58:26.736Z,7.50
2022-12-11T15:01:07.039Z,5.50
2022-12-11T15:04:13.020Z,3.80
2022-12-11T15:06:56.151Z,4.40
2022-12-11T15:09:45.250Z,8.50
2022-12-11T15:12:51.475Z,4.70
2022-12-11T15:15:24.463Z,6.10
2022-12-11T15:17:57.024Z,7.10
2022-12-11T15:20:31.384Z,5.70
2022-12-11T15:23:04.309Z,6.30
2022-12-11T15:25:37.424Z,5.80
2022-12-11T15:28:30.464Z,7.20
2022-12-11T15:31:05.784Z,9.40
2022-12-11T15:33:49.071Z,5.90
2022-12-11T15:36:28.431Z,5.70
2022-12-11T15:39:01.250Z,6.60
2022-12-11T15:41:34.935Z,5.70
2022-12-11T15:44:07.845Z,5.30
2022-12-11T15:46:40.539Z,4.50
2022-12-11T15:49:15.381Z,7.00
2022-12-11T15:51:51.368Z,6.70
2022-12-11T15:55:04.776Z,5.80
2022-12-11T15:57:42.418Z,4.50
2022-12-11T16:00:39.670Z,9.20
2022-12-11T16:03:36.150Z,8.30
2022-12-11T16:06:34.678Z,6.40
2022-12-11T16:09:46.236Z,7.00
2022-12-11T16:13:12.075Z,4.50
2022-12-11T16:16:25.767Z,3.70
2022-12-11T16:19:09.903Z,8.20
2022-12-11T16:22:03.422Z,3.30
2022-12-11T16:24:36.144Z,5.60
2022-12-11T16:27:10.664Z,3.20
2022-12-11T16:29:59.227Z,5.20
2022-12-11T16:34:16.843Z,6.00
2022-12-11T16:35:36.728Z,3.10
2022-12-11T16:38:13.511Z,3.30
2022-12-11T16:40:48.277Z,3.30
2022-12-11T16:43:20.719Z,4.20
2022-12-11T16:45:56.985Z,4.60
2022-12-11T16:48:30.424Z,6.10
2022-12-11T16:51:02.763Z,6.70
2022-12-11T16:53:35.870Z,3.90
2022-12-11T16:56:10.869Z,5.00
2022-12-11T16:58:43.516Z,3.50
2022-12-11T17:01:19.829Z,5.00
2022-12-11T17:04:06.268Z,6.10
2022-12-11T17:06:41.406Z,5.30
2022-12-11T17:09:14.479Z,7.00
2022-12-11T17:11:47.031Z,8.10
2022-12-11T17:16:49.965Z,7.70
2022-12-11T17:19:23.618Z,3.80
2022-12-11T17:21:57.044Z,4.60
2022-12-11T17:24:30.441Z,5.70
2022-12-11T17:27:02.647Z,3.30
2022-12-11T17:29:35.905Z,4.10
2022-12-11T17:32:09.407Z,3.60
2022-12-11T17:34:42.441Z,4.70
2022-12-11T17:37:14.815Z,3.70
2022-12-11T17:40:12.299Z,4.30
2022-12-11T17:42:45.261Z,7.30
2022-12-11T17:45:17.745Z,5.50
2022-12-11T17:47:50.017Z,5.60
2022-12-11T17:50:24.317Z,7.30
2022-12-11T17:52:57.235Z,4.40
2022-12-11T17:55:30.821Z,3.70
2022-12-11T17:58:03.129Z,5.40
2022-12-11T18:00:36.435Z,5.20
2022-12-11T18:03:09.790Z,4.60
2022-12-11T18:05:47.588Z,5.30
2022-12-11T18:08:22.106Z,3.60
2022-12-11T18:10:55.036Z,6.30
2022-12-11T18:13:27.391Z,5.10
2022-12-11T18:16:05.692Z,5.20
2022-12-11T18:18:39.134Z,5.00
2022-12-11T18:21:20.629Z,3.90
2022-12-11T18:23:58.143Z,3.80
2022-12-11T18:26:32.436Z,5.80
2022-12-11T18:29:05.723Z,4.80
2022-12-11T18:31:42.413Z,6.30
2022-12-11T18:34:16.333Z,4.20
2022-12-11T18:36:51.347Z,4.00
2022-12-11T18:39:24.366Z,5.40
2022-12-11T18:42:32.361Z,6.50
2022-12-11T18:45:07.266Z,5.00
2022-12-11T18:47:50.499Z,5.70
2022-12-11T18:52:38.427Z,5.20
2022-12-11T18:53:51.849Z,5.00
2022-12-11T18:56:25.016Z,5.70
2022-12-11T18:58:59.735Z,5.40
2022-12-11T19:01:37.098Z,5.50
2022-12-11T19:04:11.027Z,6.30
2022-12-11T19:06:47.416Z,6.00
2022-12-11T19:09:21.033Z,6.10
2022-12-11T19:14:30.056Z,8.20
2022-12-11T19:17:04.590Z,6.90
2022-12-11T19:19:37.134Z,5.60
2022-12-11T19:22:09.362Z,6.50
2022-12-11T19:24:42.490Z,6.30
2022-12-11T19:27:14.717Z,6.10
2022-12-11T19:29:46.929Z,6.40
2022-12-11T19:32:19.302Z,7.80
2022-12-11T19:34:56.244Z,6.80
2022-12-11T19:37:32.396Z,9.20
2022-12-11T19:40:11.284Z,11.80
2022-12-11T19:42:50.296Z,10.10
2022-12-11T19:45:50.944Z,8.80
2022-12-11T19:48:34.161Z,9.20
2022-12-11T19:51:10.900Z,8.10
2022-12-11T19:53:45.052Z,9.10
2022-12-11T19:56:19.986Z,8.90
2022-12-11T19:58:54.635Z,10.80
2022-12-11T20:01:32.348Z,9.00
2022-12-11T20:04:31.816Z,10.70
2022-12-11T20:07:46.718Z,10.80
2022-12-11T20:10:27.602Z,9.70
2022-12-11T20:13:38.099Z,11.90
2022-12-11T20:19:18.525Z,11.00
2022-12-11T20:19:40.055Z,10.40
2022-12-11T20:22:07.488Z,10.40
2022-12-11T20:24:49.391Z,11.00
2022-12-11T20:27:29.253Z,10.30
2022-12-11T20:30:07.290Z,9.60
2022-12-11T20:32:42.462Z,12.10
2022-12-11T20:35:15.413Z,10.00
2022-12-11T20:40:19.694Z,12.20
2022-12-11T20:43:03.657Z,11.70
2022-12-11T20:45:45.713Z,14.80
2022-12-11T20:48:18.988Z,12.70
2022-12-11T20:50:51.893Z,14.80
2022-12-11T20:53:30.628Z,13.60
2022-12-11T20:56:04.544Z,16.00
2022-12-11T20:58:43.326Z,13.80
2022-12-11T21:01:21.719Z,13.70
2022-12-11T21:03:58.105Z,13.30
2022-12-11T21:06:37.125Z,12.80
2022-12-11T21:09:36.131Z,14.00
2022-12-11T21:12:31.319Z,14.20
2022-12-11T21:15:08.706Z,15.50
2022-12-11T21:17:51.668Z,14.40
2022-12-11T21:20:42.358Z,12.90
2022-12-11T21:23:15.326Z,15.50
2022-12-11T21:25:49.625Z,14.50
2022-12-11T21:28:29.337Z,14.10
2022-12-11T21:31:10.444Z,16.00
2022-12-11T21:33:47.399Z,15.10
2022-12-11T21:36:23.911Z,15.60
2022-12-11T21:38:59.847Z,15.00
2022-12-11T21:41:32.891Z,14.60
2022-12-11T21:47:10.204Z,14.30
2022-12-11T21:49:52.012Z,16.10
2022-12-11T21:52:58.515Z,14.60
2022-12-11T21:55:47.844Z,15.30
2022-12-11T21:58:40.229Z,15.10
2022-12-11T22:01:32.724Z,15.60
2022-12-11T22:04:07.895Z,13.60
2022-12-11T22:06:47.538Z,17.20
2022-12-11T22:09:24.379Z,17.50
2022-12-11T22:12:04.153Z,19.20
2022-12-11T22:15:00.049Z,17.40
2022-12-11T22:17:51.462Z,17.20
2022-12-11T22:20:37.558Z,14.90
2022-12-11T22:23:35.847Z,17.20
2022-12-11T22:26:29.132Z,15.60
2022-12-11T22:29:14.143Z,15.90
2022-12-11T22:31:59.018Z,18.40
2022-12-11T22:34:34.733Z,16.70
2022-12-11T22:37:22.571Z,17.80
2022-12-11T22:39:58.969Z,17.80
2022-12-11T22:42:53.298Z,15.20
2022-12-11T22:45:27.859Z,18.30
2022-12-11T22:48:00.696Z,17.20
2022-12-11T22:50:33.317Z,19.60
2022-12-11T22:53:06.201Z,15.50
2022-12-11T22:58:18.578Z,20.50
2022-12-11T23:00:54.137Z,19.00
2022-12-11T23:03:26.773Z,17.10
2022-12-11T23:06:04.863Z,20.10
2022-12-11T23:08:39.482Z,19.60
2022-12-11T23:11:18.588Z,14.90
2022-12-11T23:13:51.685Z,17.30
2022-12-11T23:16:27.518Z,20.90
2022-12-11T23:19:37.394Z,20.10
2022-12-11T23:22:09.858Z,20.00
2022-12-11T23:24:42.591Z,19.60
2022-12-11T23:29:45.979Z,20.00
2022-12-11T23:32:18.514Z,16.70
2022-12-11T23:34:51.114Z,21.50
2022-12-11T23:37:23.655Z,19.70
2022-12-11T23:39:56.392Z,18.90
2022-12-11T23:42:28.915Z,17.60
2022-12-11T23:45:01.588Z,20.20
2022-12-11T23:47:34.029Z,20.40
2022-12-11T23:50:07.404Z,20.10
2022-12-11T23:52:39.973Z,20.80
2022-12-11T23:55:13.587Z,18.80
2022-12-11T23:57:46.621Z,21.20
